sensor_id;sensor_type;location;lat;lon;timestamp;P1;durP1;ratioP1;P2;durP2;ratioP2
25111;SDS011;13092;51.996;4.458;2023-02-18T00:01:15;54.75;;;32.75;;
25111;SDS011;13092;51.996;4.458;2023-02-18T00:03:46;49.92;;;33.33;;
25111;SDS011;13092;51.996;4.458;2023-02-18T00:06:15;48.22;;;32.13;;
25111;SDS011;13092;51.996;4.458;2023-02-18T00:08:44;48.65;;;33.28;;
25111;SDS011;13092;51.996;4.458;2023-02-18T00:11:13;51.72;;;32.05;;
25111;SDS011;13092;51.996;4.458;2023-02-18T00:13:48;46.30;;;31.83;;
25111;SDS011;13092;51.996;4.458;2023-02-18T00:16:17;44.92;;;31.08;;
25111;SDS011;13092;51.996;4.458;2023-02-18T00:18:45;47.53;;;32.25;;
25111;SDS011;13092;51.996;4.458;2023-02-18T00:21:13;50.92;;;31.65;;
25111;SDS011;13092;51.996;4.458;2023-02-18T00:23:42;46.58;;;31.23;;
25111;SDS011;13092;51.996;4.458;2023-02-18T00:26:11;50.33;;;31.60;;
25111;SDS011;13092;51.996;4.458;2023-02-18T00:28:42;54.35;;;32.53;;
25111;SDS011;13092;51.996;4.458;2023-02-18T00:31:11;50.95;;;31.35;;
25111;SDS011;13092;51.996;4.458;2023-02-18T00:33:41;49.58;;;30.77;;
25111;SDS011;13092;51.996;4.458;2023-02-18T00:36:09;49.83;;;31.48;;
25111;SDS011;13092;51.996;4.458;2023-02-18T00:38:42;49.00;;;30.73;;
25111;SDS011;13092;51.996;4.458;2023-02-18T00:41:11;45.20;;;30.17;;
25111;SDS011;13092;51.996;4.458;2023-02-18T00:43:39;46.65;;;30.77;;
25111;SDS011;13092;51.996;4.458;2023-02-18T00:46:08;44.33;;;30.33;;
25111;SDS011;13092;51.996;4.458;2023-02-18T00:48:37;47.10;;;30.33;;
25111;SDS011;13092;51.996;4.458;2023-02-18T00:51:06;44.17;;;29.33;;
25111;SDS011;13092;51.996;4.458;2023-02-18T00:53:35;42.55;;;29.42;;
25111;SDS011;13092;51.996;4.458;2023-02-18T00:56:04;45.95;;;30.05;;
25111;SDS011;13092;51.996;4.458;2023-02-18T00:58:37;47.47;;;30.17;;
25111;SDS011;13092;51.996;4.458;2023-02-18T01:01:05;49.28;;;29.50;;
25111;SDS011;13092;51.996;4.458;2023-02-18T01:03:36;44.17;;;28.17;;
25111;SDS011;13092;51.996;4.458;2023-02-18T01:06:05;42.70;;;29.20;;
25111;SDS011;13092;51.996;4.458;2023-02-18T01:08:35;45.85;;;28.02;;
25111;SDS011;13092;51.996;4.458;2023-02-18T01:11:04;50.08;;;29.58;;
25111;SDS011;13092;51.996;4.458;2023-02-18T01:13:33;42.05;;;27.63;;
25111;SDS011;13092;51.996;4.458;2023-02-18T01:16:02;41.60;;;28.63;;
25111;SDS011;13092;51.996;4.458;2023-02-18T01:18:31;46.97;;;28.75;;
25111;SDS011;13092;51.996;4.458;2023-02-18T01:21:00;46.92;;;28.75;;
25111;SDS011;13092;51.996;4.458;2023-02-18T01:23:33;42.90;;;28.85;;
25111;SDS011;13092;51.996;4.458;2023-02-18T01:26:01;45.47;;;28.83;;
25111;SDS011;13092;51.996;4.458;2023-02-18T01:28:29;48.00;;;29.88;;
25111;SDS011;13092;51.996;4.458;2023-02-18T01:30:58;52.67;;;30.00;;
25111;SDS011;13092;51.996;4.458;2023-02-18T01:33:32;51.53;;;30.52;;
25111;SDS011;13092;51.996;4.458;2023-02-18T01:36:03;46.67;;;29.67;;
25111;SDS011;13092;51.996;4.458;2023-02-18T01:38:32;55.33;;;29.52;;
25111;SDS011;13092;51.996;4.458;2023-02-18T01:41:00;55.10;;;30.65;;
25111;SDS011;13092;51.996;4.458;2023-02-18T01:43:29;47.42;;;29.05;;
25111;SDS011;13092;51.996;4.458;2023-02-18T01:48:49;47.55;;;28.30;;
25111;SDS011;13092;51.996;4.458;2023-02-18T01:51:22;48.28;;;29.88;;
25111;SDS011;13092;51.996;4.458;2023-02-18T01:53:53;53.05;;;28.40;;
25111;SDS011;13092;51.996;4.458;2023-02-18T01:56:25;51.22;;;28.27;;
25111;SDS011;13092;51.996;4.458;2023-02-18T01:58:56;52.28;;;29.45;;
25111;SDS011;13092;51.996;4.458;2023-02-18T02:01:29;51.85;;;30.13;;
25111;SDS011;13092;51.996;4.458;2023-02-18T02:03:58;51.17;;;30.02;;
25111;SDS011;13092;51.996;4.458;2023-02-18T02:06:28;56.58;;;30.35;;
25111;SDS011;13092;51.996;4.458;2023-02-18T02:08:56;50.70;;;30.58;;
25111;SDS011;13092;51.996;4.458;2023-02-18T02:11:35;52.70;;;30.73;;
25111;SDS011;13092;51.996;4.458;2023-02-18T02:14:28;52.53;;;29.08;;
25111;SDS011;13092;51.996;4.458;2023-02-18T02:17:12;56.50;;;29.15;;
25111;SDS011;13092;51.996;4.458;2023-02-18T02:23:16;56.25;;;28.10;;
25111;SDS011;13092;51.996;4.458;2023-02-18T02:26:22;46.42;;;29.13;;
25111;SDS011;13092;51.996;4.458;2023-02-18T02:35:40;53.38;;;28.50;;
25111;SDS011;13092;51.996;4.458;2023-02-18T02:38:17;55.63;;;29.50;;
25111;SDS011;13092;51.996;4.458;2023-02-18T02:40:54;45.47;;;27.13;;
25111;SDS011;13092;51.996;4.458;2023-02-18T02:43:30;42.28;;;24.80;;
25111;SDS011;13092;51.996;4.458;2023-02-18T02:46:06;36.45;;;23.83;;
25111;SDS011;13092;51.996;4.458;2023-02-18T02:48:42;36.30;;;22.33;;
25111;SDS011;13092;51.996;4.458;2023-02-18T02:51:17;27.50;;;21.65;;
25111;SDS011;13092;51.996;4.458;2023-02-18T02:53:48;29.65;;;22.02;;
25111;SDS011;13092;51.996;4.458;2023-02-18T02:56:16;26.67;;;21.55;;
25111;SDS011;13092;51.996;4.458;2023-02-18T02:58:47;28.23;;;20.88;;
25111;SDS011;13092;51.996;4.458;2023-02-18T03:01:28;28.23;;;19.98;;
25111;SDS011;13092;51.996;4.458;2023-02-18T03:04:08;24.63;;;20.20;;
25111;SDS011;13092;51.996;4.458;2023-02-18T03:07:01;24.10;;;19.23;;
25111;SDS011;13092;51.996;4.458;2023-02-18T03:09:51;32.80;;;21.73;;
25111;SDS011;13092;51.996;4.458;2023-02-18T03:12:33;27.45;;;21.70;;
25111;SDS011;13092;51.996;4.458;2023-02-18T03:15:07;30.33;;;22.52;;
25111;SDS011;13092;51.996;4.458;2023-02-18T03:17:43;29.35;;;22.20;;
25111;SDS011;13092;51.996;4.458;2023-02-18T03:20:19;27.88;;;22.13;;
25111;SDS011;13092;51.996;4.458;2023-02-18T03:22:53;27.73;;;21.10;;
25111;SDS011;13092;51.996;4.458;2023-02-18T03:25:24;31.67;;;20.33;;
25111;SDS011;13092;51.996;4.458;2023-02-18T03:27:58;27.80;;;19.70;;
25111;SDS011;13092;51.996;4.458;2023-02-18T03:30:30;29.52;;;20.52;;
25111;SDS011;13092;51.996;4.458;2023-02-18T03:33:02;29.35;;;20.33;;
25111;SDS011;13092;51.996;4.458;2023-02-18T03:35:32;24.83;;;19.90;;
25111;SDS011;13092;51.996;4.458;2023-02-18T03:38:05;24.55;;;19.77;;
25111;SDS011;13092;51.996;4.458;2023-02-18T03:40:40;27.60;;;19.38;;
25111;SDS011;13092;51.996;4.458;2023-02-18T03:43:08;26.38;;;18.77;;
25111;SDS011;13092;51.996;4.458;2023-02-18T03:45:36;25.10;;;18.67;;
25111;SDS011;13092;51.996;4.458;2023-02-18T03:48:05;26.33;;;18.98;;
25111;SDS011;13092;51.996;4.458;2023-02-18T03:50:33;23.08;;;18.20;;
25111;SDS011;13092;51.996;4.458;2023-02-18T03:53:01;24.30;;;18.55;;
25111;SDS011;13092;51.996;4.458;2023-02-18T03:55:31;21.67;;;16.60;;
25111;SDS011;13092;51.996;4.458;2023-02-18T03:57:59;19.33;;;17.30;;
25111;SDS011;13092;51.996;4.458;2023-02-18T04:00:27;19.73;;;17.60;;
25111;SDS011;13092;51.996;4.458;2023-02-18T04:02:57;23.42;;;17.92;;
25111;SDS011;13092;51.996;4.458;2023-02-18T04:05:26;23.23;;;18.00;;
25111;SDS011;13092;51.996;4.458;2023-02-18T04:07:54;24.45;;;19.27;;
25111;SDS011;13092;51.996;4.458;2023-02-18T04:10:22;25.13;;;19.30;;
25111;SDS011;13092;51.996;4.458;2023-02-18T04:12:52;26.33;;;20.33;;
25111;SDS011;13092;51.996;4.458;2023-02-18T04:15:20;31.63;;;21.00;;
25111;SDS011;13092;51.996;4.458;2023-02-18T04:17:48;31.38;;;21.35;;
25111;SDS011;13092;51.996;4.458;2023-02-18T04:20:17;35.28;;;23.02;;
25111;SDS011;13092;51.996;4.458;2023-02-18T04:22:49;34.50;;;22.58;;
25111;SDS011;13092;51.996;4.458;2023-02-18T04:25:17;36.97;;;22.88;;
25111;SDS011;13092;51.996;4.458;2023-02-18T04:27:45;36.97;;;24.30;;
25111;SDS011;13092;51.996;4.458;2023-02-18T04:30:14;34.17;;;23.92;;
25111;SDS011;13092;51.996;4.458;2023-02-18T04:32:44;38.67;;;23.77;;
25111;SDS011;13092;51.996;4.458;2023-02-18T04:35:12;31.23;;;22.77;;
25111;SDS011;13092;51.996;4.458;2023-02-18T04:37:41;31.23;;;23.38;;
25111;SDS011;13092;51.996;4.458;2023-02-18T04:40:09;36.30;;;23.20;;
25111;SDS011;13092;51.996;4.458;2023-02-18T04:42:38;34.85;;;22.50;;
25111;SDS011;13092;51.996;4.458;2023-02-18T04:45:06;31.52;;;22.77;;
25111;SDS011;13092;51.996;4.458;2023-02-18T04:47:36;31.55;;;23.05;;
25111;SDS011;13092;51.996;4.458;2023-02-18T04:50:06;31.58;;;21.98;;
25111;SDS011;13092;51.996;4.458;2023-02-18T04:52:35;28.65;;;21.70;;
25111;SDS011;13092;51.996;4.458;2023-02-18T04:55:03;31.58;;;22.50;;
25111;SDS011;13092;51.996;4.458;2023-02-18T04:57:31;29.33;;;21.90;;
25111;SDS011;13092;51.996;4.458;2023-02-18T05:00:03;30.27;;;21.63;;
25111;SDS011;13092;51.996;4.458;2023-02-18T05:02:32;29.05;;;21.23;;
25111;SDS011;13092;51.996;4.458;2023-02-18T05:05:02;26.17;;;21.10;;
25111;SDS011;13092;51.996;4.458;2023-02-18T05:07:30;28.10;;;21.77;;
25111;SDS011;13092;51.996;4.458;2023-02-18T05:09:58;27.02;;;20.98;;
25111;SDS011;13092;51.996;4.458;2023-02-18T05:12:26;29.35;;;20.58;;
25111;SDS011;13092;51.996;4.458;2023-02-18T05:14:54;28.27;;;21.83;;
25111;SDS011;13092;51.996;4.458;2023-02-18T05:17:22;27.90;;;21.20;;
25111;SDS011;13092;51.996;4.458;2023-02-18T05:19:51;26.48;;;21.25;;
25111;SDS011;13092;51.996;4.458;2023-02-18T05:22:20;26.08;;;22.00;;
25111;SDS011;13092;51.996;4.458;2023-02-18T05:24:49;27.10;;;20.85;;
25111;SDS011;13092;51.996;4.458;2023-02-18T05:27:17;27.42;;;21.17;;
25111;SDS011;13092;51.996;4.458;2023-02-18T05:29:45;28.90;;;20.33;;
25111;SDS011;13092;51.996;4.458;2023-02-18T05:32:13;27.52;;;20.83;;
25111;SDS011;13092;51.996;4.458;2023-02-18T05:34:41;25.30;;;20.75;;
25111;SDS011;13092;51.996;4.458;2023-02-18T05:37:12;32.90;;;21.30;;
25111;SDS011;13092;51.996;4.458;2023-02-18T05:39:41;30.40;;;21.58;;
25111;SDS011;13092;51.996;4.458;2023-02-18T05:42:09;28.20;;;22.23;;
25111;SDS011;13092;51.996;4.458;2023-02-18T05:44:40;31.15;;;23.92;;
25111;SDS011;13092;51.996;4.458;2023-02-18T05:47:09;32.55;;;22.98;;
25111;SDS011;13092;51.996;4.458;2023-02-18T05:49:39;33.10;;;22.83;;
25111;SDS011;13092;51.996;4.458;2023-02-18T05:52:10;31.88;;;23.05;;
25111;SDS011;13092;51.996;4.458;2023-02-18T05:54:42;34.40;;;22.85;;
25111;SDS011;13092;51.996;4.458;2023-02-18T05:57:13;34.03;;;23.55;;
25111;SDS011;13092;51.996;4.458;2023-02-18T05:59:42;34.60;;;22.60;;
25111;SDS011;13092;51.996;4.458;2023-02-18T06:02:10;35.05;;;22.38;;
25111;SDS011;13092;51.996;4.458;2023-02-18T06:04:38;34.75;;;23.02;;
25111;SDS011;13092;51.996;4.458;2023-02-18T06:07:07;38.13;;;22.10;;
25111;SDS011;13092;51.996;4.458;2023-02-18T06:09:35;35.20;;;22.08;;
25111;SDS011;13092;51.996;4.458;2023-02-18T06:12:05;31.10;;;21.75;;
25111;SDS011;13092;51.996;4.458;2023-02-18T06:14:34;34.58;;;22.10;;
25111;SDS011;13092;51.996;4.458;2023-02-18T06:17:02;37.10;;;20.98;;
25111;SDS011;13092;51.996;4.458;2023-02-18T06:19:30;35.58;;;20.73;;
25111;SDS011;13092;51.996;4.458;2023-02-18T06:21:59;41.20;;;20.50;;
25111;SDS011;13092;51.996;4.458;2023-02-18T06:24:27;32.53;;;20.88;;
25111;SDS011;13092;51.996;4.458;2023-02-18T06:26:58;31.13;;;19.90;;
25111;SDS011;13092;51.996;4.458;2023-02-18T06:29:28;38.15;;;22.50;;
25111;SDS011;13092;51.996;4.458;2023-02-18T06:31:57;38.40;;;20.63;;
25111;SDS011;13092;51.996;4.458;2023-02-18T06:34:26;38.65;;;21.38;;
25111;SDS011;13092;51.996;4.458;2023-02-18T06:36:55;34.95;;;20.95;;
25111;SDS011;13092;51.996;4.458;2023-02-18T06:39:26;33.05;;;20.60;;
25111;SDS011;13092;51.996;4.458;2023-02-18T06:41:57;35.13;;;19.80;;
25111;SDS011;13092;51.996;4.458;2023-02-18T06:44:25;30.25;;;18.98;;
25111;SDS011;13092;51.996;4.458;2023-02-18T06:46:55;33.80;;;18.48;;
25111;SDS011;13092;51.996;4.458;2023-02-18T06:49:25;32.95;;;18.83;;
25111;SDS011;13092;51.996;4.458;2023-02-18T06:51:53;26.30;;;19.23;;
25111;SDS011;13092;51.996;4.458;2023-02-18T06:54:21;38.03;;;19.15;;
25111;SDS011;13092;51.996;4.458;2023-02-18T06:56:53;34.38;;;19.83;;
25111;SDS011;13092;51.996;4.458;2023-02-18T06:59:21;33.97;;;19.98;;
25111;SDS011;13092;51.996;4.458;2023-02-18T07:01:49;28.15;;;19.45;;
25111;SDS011;13092;51.996;4.458;2023-02-18T07:04:20;34.10;;;19.75;;
25111;SDS011;13092;51.996;4.458;2023-02-18T07:06:48;27.05;;;19.75;;
25111;SDS011;13092;51.996;4.458;2023-02-18T07:09:16;39.10;;;20.77;;
25111;SDS011;13092;51.996;4.458;2023-02-18T07:11:44;35.80;;;21.45;;
25111;SDS011;13092;51.996;4.458;2023-02-18T07:14:12;37.38;;;20.58;;
25111;SDS011;13092;51.996;4.458;2023-02-18T07:16:41;38.25;;;20.65;;
25111;SDS011;13092;51.996;4.458;2023-02-18T07:19:09;36.25;;;20.73;;
25111;SDS011;13092;51.996;4.458;2023-02-18T07:21:41;30.00;;;20.70;;
25111;SDS011;13092;51.996;4.458;2023-02-18T07:24:09;32.03;;;20.90;;
25111;SDS011;13092;51.996;4.458;2023-02-18T07:26:37;30.80;;;20.77;;
25111;SDS011;13092;51.996;4.458;2023-02-18T07:29:05;33.38;;;21.08;;
25111;SDS011;13092;51.996;4.458;2023-02-18T07:31:33;27.65;;;20.52;;
25111;SDS011;13092;51.996;4.458;2023-02-18T07:34:03;35.00;;;20.83;;
25111;SDS011;13092;51.996;4.458;2023-02-18T07:36:31;34.67;;;21.02;;
25111;SDS011;13092;51.996;4.458;2023-02-18T07:39:01;28.02;;;21.00;;
25111;SDS011;13092;51.996;4.458;2023-02-18T07:41:29;29.45;;;20.67;;
25111;SDS011;13092;51.996;4.458;2023-02-18T07:43:57;28.10;;;19.63;;
25111;SDS011;13092;51.996;4.458;2023-02-18T07:46:25;34.53;;;20.85;;
25111;SDS011;13092;51.996;4.458;2023-02-18T07:48:56;35.47;;;21.35;;
25111;SDS011;13092;51.996;4.458;2023-02-18T07:51:24;33.97;;;20.95;;
25111;SDS011;13092;51.996;4.458;2023-02-18T07:53:52;30.70;;;20.98;;
25111;SDS011;13092;51.996;4.458;2023-02-18T07:56:22;31.85;;;21.08;;
25111;SDS011;13092;51.996;4.458;2023-02-18T07:58:50;30.20;;;21.50;;
25111;SDS011;13092;51.996;4.458;2023-02-18T08:01:19;35.63;;;21.13;;
25111;SDS011;13092;51.996;4.458;2023-02-18T08:03:47;32.47;;;21.25;;
25111;SDS011;13092;51.996;4.458;2023-02-18T08:06:20;33.22;;;21.17;;
25111;SDS011;13092;51.996;4.458;2023-02-18T08:08:52;34.42;;;21.42;;
25111;SDS011;13092;51.996;4.458;2023-02-18T08:11:23;29.95;;;20.92;;
25111;SDS011;13092;51.996;4.458;2023-02-18T08:13:51;32.72;;;20.17;;
25111;SDS011;13092;51.996;4.458;2023-02-18T08:16:20;29.45;;;20.63;;
25111;SDS011;13092;51.996;4.458;2023-02-18T08:18:49;32.50;;;21.02;;
25111;SDS011;13092;51.996;4.458;2023-02-18T08:21:18;31.48;;;20.48;;
25111;SDS011;13092;51.996;4.458;2023-02-18T08:23:47;29.08;;;20.65;;
25111;SDS011;13092;51.996;4.458;2023-02-18T08:26:15;37.95;;;21.38;;
25111;SDS011;13092;51.996;4.458;2023-02-18T08:28:48;31.50;;;20.60;;
25111;SDS011;13092;51.996;4.458;2023-02-18T08:31:16;29.88;;;21.13;;
25111;SDS011;13092;51.996;4.458;2023-02-18T08:33:46;30.08;;;20.27;;
25111;SDS011;13092;51.996;4.458;2023-02-18T08:36:14;25.85;;;21.00;;
25111;SDS011;13092;51.996;4.458;2023-02-18T08:38:42;32.17;;;20.83;;
25111;SDS011;13092;51.996;4.458;2023-02-18T08:41:13;26.92;;;19.45;;
25111;SDS011;13092;51.996;4.458;2023-02-18T08:43:45;27.50;;;20.20;;
25111;SDS011;13092;51.996;4.458;2023-02-18T08:46:15;25.70;;;20.23;;
25111;SDS011;13092;51.996;4.458;2023-02-18T08:49:01;22.90;;;19.42;;
25111;SDS011;13092;51.996;4.458;2023-02-18T08:51:33;23.67;;;19.65;;
25111;SDS011;13092;51.996;4.458;2023-02-18T08:54:01;22.40;;;20.17;;
25111;SDS011;13092;51.996;4.458;2023-02-18T08:56:30;27.50;;;21.23;;
25111;SDS011;13092;51.996;4.458;2023-02-18T08:59:00;30.15;;;22.25;;
25111;SDS011;13092;51.996;4.458;2023-02-18T09:01:31;28.75;;;21.38;;
25111;SDS011;13092;51.996;4.458;2023-02-18T09:03:59;27.95;;;21.05;;
25111;SDS011;13092;51.996;4.458;2023-02-18T09:06:27;25.85;;;21.00;;
25111;SDS011;13092;51.996;4.458;2023-02-18T09:08:58;24.95;;;21.25;;
25111;SDS011;13092;51.996;4.458;2023-02-18T09:11:26;23.92;;;21.20;;
25111;SDS011;13092;51.996;4.458;2023-02-18T09:13:54;27.70;;;21.55;;
25111;SDS011;13092;51.996;4.458;2023-02-18T09:16:23;30.35;;;22.73;;
25111;SDS011;13092;51.996;4.458;2023-02-18T09:18:53;24.95;;;21.90;;
25111;SDS011;13092;51.996;4.458;2023-02-18T09:21:24;24.08;;;21.40;;
25111;SDS011;13092;51.996;4.458;2023-02-18T09:23:52;25.13;;;22.08;;
25111;SDS011;13092;51.996;4.458;2023-02-18T09:26:21;32.75;;;22.77;;
25111;SDS011;13092;51.996;4.458;2023-02-18T09:28:50;28.13;;;22.75;;
25111;SDS011;13092;51.996;4.458;2023-02-18T09:31:20;31.27;;;22.02;;
25111;SDS011;13092;51.996;4.458;2023-02-18T09:33:52;28.77;;;22.42;;
25111;SDS011;13092;51.996;4.458;2023-02-18T09:36:21;32.85;;;22.65;;
25111;SDS011;13092;51.996;4.458;2023-02-18T09:38:50;35.53;;;23.55;;
25111;SDS011;13092;51.996;4.458;2023-02-18T09:41:22;30.77;;;23.73;;
25111;SDS011;13092;51.996;4.458;2023-02-18T09:43:59;36.42;;;23.10;;
25111;SDS011;13092;51.996;4.458;2023-02-18T09:46:32;32.65;;;22.63;;
25111;SDS011;13092;51.996;4.458;2023-02-18T09:49:07;26.23;;;22.77;;
25111;SDS011;13092;51.996;4.458;2023-02-18T09:51:41;28.70;;;22.02;;
25111;SDS011;13092;51.996;4.458;2023-02-18T09:54:10;28.83;;;22.85;;
25111;SDS011;13092;51.996;4.458;2023-02-18T09:56:40;28.33;;;22.27;;
25111;SDS011;13092;51.996;4.458;2023-02-18T09:59:14;29.52;;;24.10;;
25111;SDS011;13092;51.996;4.458;2023-02-18T10:01:44;29.20;;;22.90;;
25111;SDS011;13092;51.996;4.458;2023-02-18T10:04:19;29.33;;;22.65;;
25111;SDS011;13092;51.996;4.458;2023-02-18T10:06:51;26.42;;;21.77;;
25111;SDS011;13092;51.996;4.458;2023-02-18T10:09:21;32.35;;;22.95;;
25111;SDS011;13092;51.996;4.458;2023-02-18T10:11:54;29.58;;;22.60;;
25111;SDS011;13092;51.996;4.458;2023-02-18T10:14:24;24.67;;;21.80;;
25111;SDS011;13092;51.996;4.458;2023-02-18T10:16:53;27.38;;;22.52;;
25111;SDS011;13092;51.996;4.458;2023-02-18T10:19:24;33.13;;;22.27;;
25111;SDS011;13092;51.996;4.458;2023-02-18T10:21:59;27.17;;;22.85;;
25111;SDS011;13092;51.996;4.458;2023-02-18T10:24:30;26.75;;;22.48;;
25111;SDS011;13092;51.996;4.458;2023-02-18T10:27:01;24.10;;;21.73;;
25111;SDS011;13092;51.996;4.458;2023-02-18T10:29:32;28.40;;;22.40;;
25111;SDS011;13092;51.996;4.458;2023-02-18T10:32:03;27.88;;;22.13;;
25111;SDS011;13092;51.996;4.458;2023-02-18T10:34:39;27.33;;;22.45;;
25111;SDS011;13092;51.996;4.458;2023-02-18T10:37:13;30.13;;;22.15;;
25111;SDS011;13092;51.996;4.458;2023-02-18T10:39:59;25.98;;;21.90;;
25111;SDS011;13092;51.996;4.458;2023-02-18T10:42:38;29.40;;;23.15;;
25111;SDS011;13092;51.996;4.458;2023-02-18T10:45:17;26.20;;;22.77;;
25111;SDS011;13092;51.996;4.458;2023-02-18T10:48:05;25.83;;;22.42;;
25111;SDS011;13092;51.996;4.458;2023-02-18T10:50:48;28.02;;;23.08;;
25111;SDS011;13092;51.996;4.458;2023-02-18T10:53:18;26.42;;;22.27;;
25111;SDS011;13092;51.996;4.458;2023-02-18T10:55:55;30.52;;;22.55;;
25111;SDS011;13092;51.996;4.458;2023-02-18T10:58:25;30.65;;;22.55;;
25111;SDS011;13092;51.996;4.458;2023-02-18T11:00:59;29.83;;;22.70;;
25111;SDS011;13092;51.996;4.458;2023-02-18T11:03:43;27.30;;;22.08;;
25111;SDS011;13092;51.996;4.458;2023-02-18T11:06:18;25.73;;;22.77;;
25111;SDS011;13092;51.996;4.458;2023-02-18T11:08:51;25.42;;;22.10;;
25111;SDS011;13092;51.996;4.458;2023-02-18T11:11:22;25.60;;;22.70;;
25111;SDS011;13092;51.996;4.458;2023-02-18T11:13:55;25.50;;;22.77;;
25111;SDS011;13092;51.996;4.458;2023-02-18T11:16:35;25.58;;;22.80;;
25111;SDS011;13092;51.996;4.458;2023-02-18T11:19:18;32.20;;;22.90;;
25111;SDS011;13092;51.996;4.458;2023-02-18T11:22:06;28.17;;;22.85;;
25111;SDS011;13092;51.996;4.458;2023-02-18T11:24:41;30.38;;;22.75;;
25111;SDS011;13092;51.996;4.458;2023-02-18T11:27:16;25.27;;;22.45;;
25111;SDS011;13092;51.996;4.458;2023-02-18T11:29:50;33.50;;;23.00;;
25111;SDS011;13092;51.996;4.458;2023-02-18T11:32:19;27.30;;;22.83;;
25111;SDS011;13092;51.996;4.458;2023-02-18T11:34:48;26.30;;;23.52;;
25111;SDS011;13092;51.996;4.458;2023-02-18T11:37:18;30.17;;;22.73;;
25111;SDS011;13092;51.996;4.458;2023-02-18T11:39:49;25.08;;;22.50;;
25111;SDS011;13092;51.996;4.458;2023-02-18T11:42:19;25.73;;;22.95;;
25111;SDS011;13092;51.996;4.458;2023-02-18T11:44:52;25.05;;;22.65;;
25111;SDS011;13092;51.996;4.458;2023-02-18T11:47:23;25.77;;;22.90;;
25111;SDS011;13092;51.996;4.458;2023-02-18T11:50:01;24.85;;;22.33;;
25111;SDS011;13092;51.996;4.458;2023-02-18T11:52:45;27.95;;;22.75;;
25111;SDS011;13092;51.996;4.458;2023-02-18T11:55:16;26.15;;;22.98;;
25111;SDS011;13092;51.996;4.458;2023-02-18T11:57:48;25.30;;;22.88;;
25111;SDS011;13092;51.996;4.458;2023-02-18T12:00:23;25.30;;;22.80;;
25111;SDS011;13092;51.996;4.458;2023-02-18T12:03:02;28.73;;;23.67;;
25111;SDS011;13092;51.996;4.458;2023-02-18T12:05:34;25.80;;;23.35;;
25111;SDS011;13092;51.996;4.458;2023-02-18T12:08:06;25.92;;;23.20;;
25111;SDS011;13092;51.996;4.458;2023-02-18T12:10:52;25.50;;;22.88;;
25111;SDS011;13092;51.996;4.458;2023-02-18T12:13:26;24.63;;;22.45;;
25111;SDS011;13092;51.996;4.458;2023-02-18T12:16:01;25.65;;;22.70;;
25111;SDS011;13092;51.996;4.458;2023-02-18T12:18:46;25.77;;;23.20;;
25111;SDS011;13092;51.996;4.458;2023-02-18T12:21:32;26.77;;;23.98;;
25111;SDS011;13092;51.996;4.458;2023-02-18T12:24:09;27.45;;;24.60;;
25111;SDS011;13092;51.996;4.458;2023-02-18T12:26:48;27.10;;;24.05;;
25111;SDS011;13092;51.996;4.458;2023-02-18T12:29:29;26.25;;;23.52;;
25111;SDS011;13092;51.996;4.458;2023-02-18T12:32:14;26.88;;;24.25;;
25111;SDS011;13092;51.996;4.458;2023-02-18T12:34:56;26.40;;;23.90;;
25111;SDS011;13092;51.996;4.458;2023-02-18T12:37:41;26.85;;;24.08;;
25111;SDS011;13092;51.996;4.458;2023-02-18T12:40:23;27.02;;;23.88;;
25111;SDS011;13092;51.996;4.458;2023-02-18T12:43:08;26.60;;;24.05;;
25111;SDS011;13092;51.996;4.458;2023-02-18T12:45:56;31.58;;;26.20;;
25111;SDS011;13092;51.996;4.458;2023-02-18T12:48:37;26.70;;;23.83;;
25111;SDS011;13092;51.996;4.458;2023-02-18T12:51:31;29.50;;;24.75;;
25111;SDS011;13092;51.996;4.458;2023-02-18T12:57:15;27.17;;;24.35;;
25111;SDS011;13092;51.996;4.458;2023-02-18T13:00:14;26.35;;;23.58;;
25111;SDS011;13092;51.996;4.458;2023-02-18T13:03:06;32.05;;;24.40;;
25111;SDS011;13092;51.996;4.458;2023-02-18T13:05:55;33.53;;;24.63;;
25111;SDS011;13092;51.996;4.458;2023-02-18T13:08:32;27.85;;;25.13;;
25111;SDS011;13092;51.996;4.458;2023-02-18T13:11:20;29.45;;;25.67;;
25111;SDS011;13092;51.996;4.458;2023-02-18T13:14:08;30.05;;;26.83;;
25111;SDS011;13092;51.996;4.458;2023-02-18T13:16:40;27.80;;;24.90;;
25111;SDS011;13092;51.996;4.458;2023-02-18T13:19:15;28.58;;;24.40;;
25111;SDS011;13092;51.996;4.458;2023-02-18T13:21:47;28.33;;;25.15;;
25111;SDS011;13092;51.996;4.458;2023-02-18T13:24:21;27.25;;;24.13;;
25111;SDS011;13092;51.996;4.458;2023-02-18T13:26:55;27.13;;;24.58;;
25111;SDS011;13092;51.996;4.458;2023-02-18T13:29:31;29.00;;;25.67;;
25111;SDS011;13092;51.996;4.458;2023-02-18T13:32:06;28.45;;;24.98;;
25111;SDS011;13092;51.996;4.458;2023-02-18T13:34:45;28.08;;;25.23;;
25111;SDS011;13092;51.996;4.458;2023-02-18T13:37:19;28.33;;;25.33;;
25111;SDS011;13092;51.996;4.458;2023-02-18T13:39:54;28.00;;;25.20;;
25111;SDS011;13092;51.996;4.458;2023-02-18T13:42:25;28.42;;;25.40;;
25111;SDS011;13092;51.996;4.458;2023-02-18T13:47:58;29.08;;;25.92;;
25111;SDS011;13092;51.996;4.458;2023-02-18T13:50:29;29.40;;;26.25;;
25111;SDS011;13092;51.996;4.458;2023-02-18T13:53:14;28.38;;;25.55;;
25111;SDS011;13092;51.996;4.458;2023-02-18T13:55:51;28.45;;;25.50;;
25111;SDS011;13092;51.996;4.458;2023-02-18T13:58:23;31.60;;;27.25;;
25111;SDS011;13092;51.996;4.458;2023-02-18T14:01:00;30.60;;;26.85;;
25111;SDS011;13092;51.996;4.458;2023-02-18T14:03:33;30.02;;;26.92;;
25111;SDS011;13092;51.996;4.458;2023-02-18T14:06:14;29.10;;;26.23;;
25111;SDS011;13092;51.996;4.458;2023-02-18T14:08:43;29.30;;;26.17;;
25111;SDS011;13092;51.996;4.458;2023-02-18T14:14:13;28.98;;;25.88;;
25111;SDS011;13092;51.996;4.458;2023-02-18T14:17:12;29.63;;;26.13;;
25111;SDS011;13092;51.996;4.458;2023-02-18T14:22:59;28.75;;;25.77;;
25111;SDS011;13092;51.996;4.458;2023-02-18T14:25:34;29.17;;;26.30;;
25111;SDS011;13092;51.996;4.458;2023-02-18T14:31:04;28.23;;;25.23;;
25111;SDS011;13092;51.996;4.458;2023-02-18T14:33:49;28.17;;;25.10;;
25111;SDS011;13092;51.996;4.458;2023-02-18T14:36:35;29.95;;;25.23;;
25111;SDS011;13092;51.996;4.458;2023-02-18T14:39:10;29.90;;;25.75;;
25111;SDS011;13092;51.996;4.458;2023-02-18T14:41:52;28.00;;;25.15;;
25111;SDS011;13092;51.996;4.458;2023-02-18T14:44:29;28.33;;;25.45;;
25111;SDS011;13092;51.996;4.458;2023-02-18T14:47:16;28.02;;;25.15;;
25111;SDS011;13092;51.996;4.458;2023-02-18T14:49:52;27.23;;;24.77;;
25111;SDS011;13092;51.996;4.458;2023-02-18T14:52:27;28.88;;;25.20;;
25111;SDS011;13092;51.996;4.458;2023-02-18T14:54:59;26.65;;;24.05;;
25111;SDS011;13092;51.996;4.458;2023-02-18T14:57:32;28.42;;;25.02;;
25111;SDS011;13092;51.996;4.458;2023-02-18T15:00:05;28.40;;;24.23;;
25111;SDS011;13092;51.996;4.458;2023-02-18T15:02:40;32.22;;;24.83;;
25111;SDS011;13092;51.996;4.458;2023-02-18T15:05:15;28.10;;;25.05;;
25111;SDS011;13092;51.996;4.458;2023-02-18T15:07:55;34.70;;;25.25;;
25111;SDS011;13092;51.996;4.458;2023-02-18T15:10:26;27.58;;;24.63;;
25111;SDS011;13092;51.996;4.458;2023-02-18T15:13:02;27.60;;;24.80;;
25111;SDS011;13092;51.996;4.458;2023-02-18T15:15:31;27.83;;;24.80;;
25111;SDS011;13092;51.996;4.458;2023-02-18T15:18:03;29.92;;;25.58;;
25111;SDS011;13092;51.996;4.458;2023-02-18T15:20:33;28.60;;;25.17;;